Time,TemperatureF,DewpointF,PressureIn,WindDirection,WindDirectionDegrees,WindSpeedMPH,WindSpeedGustMPH,Humidity,HourlyPrecipIn,Conditions,Clouds,dailyrainin,SoftwareType,DateUTC
2013-04-22 00:02:00,51.0,39.0,29.93,NW,315,0.0,0.0,64,0.00,,,0.00,,2013-04-22 05:02:00,
2013-04-22 00:12:00,51.0,39.0,29.93,NW,315,0.0,0.0,64,0.00,,,0.00,,2013-04-22 05:12:00,
2013-04-22 00:22:00,51.0,40.0,29.94,NW,315,0.0,0.0,66,0.00,,,0.00,,2013-04-22 05:22:00,
2013-04-22 00:32:00,50.0,39.0,29.94,NW,315,0.0,0.0,67,0.00,,,0.00,,2013-04-22 05:32:00,
2013-04-22 00:42:00,50.0,39.0,29.94,NW,315,0.0,0.0,67,0.00,,,0.00,,2013-04-22 05:42:00,
2013-04-22 00:52:00,50.0,40.0,29.94,NW,315,0.0,0.0,68,0.00,,,0.00,,2013-04-22 05:52:00,
2013-04-22 01:02:00,50.0,40.0,29.94,West,270,0.0,0.0,69,0.00,,,0.00,,2013-04-22 06:02:00,
2013-04-22 01:12:00,50.0,40.0,29.94,West,270,0.0,0.0,69,0.00,,,0.00,,2013-04-22 06:12:00,
2013-04-22 01:21:00,50.0,40.0,29.94,North,360,0.0,0.0,68,0.00,,,0.00,,2013-04-22 06:21:00,
2013-04-22 01:32:00,49.0,40.0,29.94,North,360,0.0,0.0,70,0.00,,,0.00,,2013-04-22 06:32:00,
2013-04-22 01:42:00,49.0,40.0,29.94,North,360,0.0,0.0,70,0.00,,,0.00,,2013-04-22 06:42:00,
2013-04-22 01:52:00,48.0,39.0,29.94,North,360,0.0,0.0,71,0.00,,,0.00,,2013-04-22 06:52:00,
2013-04-22 02:01:00,48.0,39.0,29.94,North,360,0.0,0.0,72,0.00,,,0.00,,2013-04-22 07:01:00,
2013-04-22 02:12:00,48.0,39.0,29.94,North,360,0.0,0.0,72,0.00,,,0.00,,2013-04-22 07:12:00,
2013-04-22 02:21:00,48.0,40.0,29.93,North,360,0.0,0.0,73,0.00,,,0.00,,2013-04-22 07:21:00,
2013-04-22 02:32:00,47.0,39.0,29.92,North,360,0.0,0.0,74,0.00,,,0.00,,2013-04-22 07:32:00,
2013-04-22 02:42:00,47.0,39.0,29.92,North,360,0.0,0.0,74,0.00,,,0.00,,2013-04-22 07:42:00,
2013-04-22 02:52:00,47.0,39.0,29.91,North,360,0.0,0.0,75,0.00,,,0.00,,2013-04-22 07:52:00,
2013-04-22 03:02:00,47.0,39.0,29.90,North,360,0.0,0.0,75,0.00,,,0.00,,2013-04-22 08:02:00,
2013-04-22 03:11:00,47.0,39.0,29.90,North,360,0.0,0.0,75,0.00,,,0.00,,2013-04-22 08:11:00,
2013-04-22 03:22:00,47.0,39.0,29.90,North,360,0.0,0.0,75,0.00,,,0.00,,2013-04-22 08:22:00,
2013-04-22 03:32:00,46.0,39.0,29.89,North,360,0.0,0.0,77,0.00,,,0.00,,2013-04-22 08:32:00,
2013-04-22 03:42:00,46.0,39.0,29.89,North,360,0.0,0.0,77,0.00,,,0.00,,2013-04-22 08:42:00,
2013-04-22 03:53:00,46.0,39.0,29.89,North,360,0.0,0.0,77,0.00,,,0.00,,2013-04-22 08:53:00,
2013-04-22 04:01:00,46.0,39.0,29.89,North,360,0.0,0.0,77,0.00,,,0.00,,2013-04-22 09:01:00,
2013-04-22 04:11:00,46.0,39.0,29.89,North,360,0.0,0.0,77,0.00,,,0.00,,2013-04-22 09:11:00,
2013-04-22 04:22:00,46.0,39.0,29.88,North,360,0.0,0.0,77,0.00,,,0.00,,2013-04-22 09:22:00,
2013-04-22 04:33:00,46.0,39.0,29.88,North,360,0.0,0.0,77,0.00,,,0.00,,2013-04-22 09:33:00,
2013-04-22 04:42:00,46.0,39.0,29.88,North,360,0.0,0.0,77,0.00,,,0.00,,2013-04-22 09:42:00,
2013-04-22 04:52:00,46.0,39.0,29.88,North,360,0.0,0.0,77,0.00,,,0.00,,2013-04-22 09:52:00,
2013-04-22 05:03:00,46.0,39.0,29.88,North,360,0.0,0.0,77,0.00,,,0.00,,2013-04-22 10:03:00,
2013-04-22 05:12:00,46.0,39.0,29.88,North,360,0.0,0.0,77,0.00,,,0.00,,2013-04-22 10:12:00,
2013-04-22 05:23:00,46.0,39.0,29.88,NW,315,0.0,0.0,76,0.00,,,0.00,,2013-04-22 10:23:00,
2013-04-22 05:32:00,46.0,39.0,29.88,NW,315,0.0,0.0,76,0.00,,,0.00,,2013-04-22 10:32:00,
2013-04-22 05:42:00,46.0,39.0,29.88,NW,315,0.0,0.0,76,0.00,,,0.00,,2013-04-22 10:42:00,
2013-04-22 05:52:00,46.0,39.0,29.88,NW,315,0.0,0.0,76,0.00,,,0.00,,2013-04-22 10:52:00,
2013-04-22 06:02:00,45.0,38.0,29.88,North,360,0.0,0.0,75,0.00,,,0.00,,2013-04-22 11:02:00,
2013-04-22 06:12:00,45.0,38.0,29.88,North,360,0.0,0.0,75,0.00,,,0.00,,2013-04-22 11:12:00,
2013-04-22 06:22:00,45.0,38.0,29.88,North,360,0.0,0.0,75,0.00,,,0.00,,2013-04-22 11:22:00,
2013-04-22 06:32:00,44.0,37.0,29.88,North,360,0.0,0.0,77,0.00,,,0.00,,2013-04-22 11:32:00,
2013-04-22 06:42:00,44.0,37.0,29.88,North,360,0.0,0.0,77,0.00,,,0.00,,2013-04-22 11:42:00,
2013-04-22 06:52:00,44.0,37.0,29.88,North,360,0.0,0.0,77,0.00,,,0.00,,2013-04-22 11:52:00,
2013-04-22 07:02:00,44.0,37.0,29.88,North,360,0.0,0.0,77,0.00,,,0.00,,2013-04-22 12:02:00,
2013-04-22 07:10:00,45.0,39.0,29.90,East,90,0.0,0.0,79,0.00,,,0.00,,2013-04-22 12:10:00,
2013-04-22 07:12:00,44.0,37.0,29.88,North,360,0.0,0.0,77,0.00,,,0.00,,2013-04-22 12:12:00,
2013-04-22 07:21:00,44.0,38.0,29.89,East,90,0.0,0.0,78,0.00,,,0.00,,2013-04-22 12:21:00,
2013-04-22 07:32:00,45.0,39.0,29.90,East,90,0.0,0.0,79,0.00,,,0.00,,2013-04-22 12:32:00,
2013-04-22 07:42:00,45.0,39.0,29.90,East,90,0.0,0.0,79,0.00,,,0.00,,2013-04-22 12:42:00,
2013-04-22 07:52:00,45.0,39.0,29.90,East,90,0.0,0.0,79,0.00,,,0.00,,2013-04-22 12:52:00,
2013-04-22 08:01:00,45.0,39.0,29.90,East,90,0.0,0.0,79,0.00,,,0.00,,2013-04-22 13:01:00,
2013-04-22 08:22:00,57.0,46.0,29.91,North,360,0.0,0.0,66,0.00,,,0.00,,2013-04-22 13:22:00,
2013-04-22 08:32:00,59.0,44.0,29.91,NW,315,0.0,0.0,57,0.00,,,0.00,,2013-04-22 13:32:00,
2013-04-22 08:42:00,59.0,44.0,29.91,NW,315,0.0,0.0,57,0.00,,,0.00,,2013-04-22 13:42:00,
2013-04-22 08:53:00,59.0,44.0,29.91,NW,315,0.0,0.0,57,0.00,,,0.00,,2013-04-22 13:53:00,
2013-04-22 09:02:00,60.0,39.0,29.91,North,360,0.0,2.0,46,0.00,,,0.00,,2013-04-22 14:02:00,
2013-04-22 09:11:00,60.0,39.0,29.91,North,360,0.0,2.0,46,0.00,,,0.00,,2013-04-22 14:11:00,
2013-04-22 09:21:00,60.0,39.0,29.91,North,360,0.0,2.0,46,0.00,,,0.00,,2013-04-22 14:21:00,
2013-04-22 09:33:00,60.0,39.0,29.91,North,360,0.0,2.0,46,0.00,,,0.00,,2013-04-22 14:33:00,
2013-04-22 09:42:00,60.0,39.0,29.91,North,360,0.0,2.0,46,0.00,,,0.00,,2013-04-22 14:42:00,
2013-04-22 09:52:00,65.0,39.0,29.91,NW,315,0.0,1.0,39,0.00,,,0.00,,2013-04-22 14:52:00,
2013-04-22 10:02:00,65.0,39.0,29.91,NW,315,0.0,1.0,39,0.00,,,0.00,,2013-04-22 15:02:00,
2013-04-22 10:12:00,65.0,39.0,29.91,NW,315,0.0,1.0,39,0.00,,,0.00,,2013-04-22 15:12:00,
2013-04-22 10:22:00,68.0,33.0,29.91,NE,45,5.0,9.0,27,0.00,,,0.00,,2013-04-22 15:22:00,
2013-04-22 10:33:00,69.0,34.0,29.91,NE,45,2.0,5.0,27,0.00,,,0.00,,2013-04-22 15:33:00,
2013-04-22 10:43:00,69.0,34.0,29.91,NE,45,2.0,5.0,27,0.00,,,0.00,,2013-04-22 15:43:00,
2013-04-22 10:53:00,70.0,35.0,29.91,NE,45,0.0,6.0,28,0.00,,,0.00,,2013-04-22 15:53:00,
2013-04-22 11:02:00,72.0,33.0,29.91,NW,315,0.0,6.0,24,0.00,,,0.00,,2013-04-22 16:02:00,
2013-04-22 11:12:00,72.0,33.0,29.91,NW,315,0.0,6.0,24,0.00,,,0.00,,2013-04-22 16:12:00,
2013-04-22 11:23:00,74.0,30.0,29.89,East,90,2.0,7.0,20,0.00,,,0.00,,2013-04-22 16:23:00,
2013-04-22 11:33:00,75.0,29.0,29.89,North,360,2.0,7.0,18,0.00,,,0.00,,2013-04-22 16:33:00,
2013-04-22 11:42:00,75.0,29.0,29.89,North,360,2.0,7.0,18,0.00,,,0.00,,2013-04-22 16:42:00,
2013-04-22 11:52:00,74.0,26.0,29.88,North,360,3.0,8.0,17,0.00,,,0.00,,2013-04-22 16:52:00,
2013-04-22 12:02:00,74.0,26.0,29.88,North,360,3.0,8.0,17,0.00,,,0.00,,2013-04-22 17:02:00,
2013-04-22 12:12:00,74.0,26.0,29.88,North,360,3.0,8.0,17,0.00,,,0.00,,2013-04-22 17:12:00,
2013-04-22 12:22:00,76.0,33.0,29.87,NE,45,0.0,8.0,21,0.00,,,0.00,,2013-04-22 17:22:00,
2013-04-22 12:32:00,76.0,28.0,29.86,North,360,6.0,9.0,17,0.00,,,0.00,,2013-04-22 17:32:00,
2013-04-22 12:42:00,76.0,28.0,29.86,North,360,6.0,9.0,17,0.00,,,0.00,,2013-04-22 17:42:00,
2013-04-22 12:52:00,77.0,26.0,29.85,NE,45,3.0,11.0,15,0.00,,,0.00,,2013-04-22 17:52:00,
2013-04-22 13:01:00,77.0,26.0,29.85,NE,45,3.0,11.0,15,0.00,,,0.00,,2013-04-22 18:01:00,
2013-04-22 13:12:00,77.0,26.0,29.85,NE,45,3.0,11.0,15,0.00,,,0.00,,2013-04-22 18:12:00,
2013-04-22 13:21:00,78.0,28.0,29.83,ESE,112,2.0,11.0,16,0.00,,,0.00,,2013-04-22 18:21:00,
2013-04-22 13:32:00,79.0,27.0,29.82,East,90,4.0,8.0,15,0.00,,,0.00,,2013-04-22 18:32:00,
2013-04-22 13:42:00,79.0,27.0,29.82,East,90,4.0,8.0,15,0.00,,,0.00,,2013-04-22 18:42:00,
2013-04-22 13:52:00,79.0,27.0,29.82,East,90,4.0,8.0,15,0.00,,,0.00,,2013-04-22 18:52:00,
2013-04-22 14:01:00,78.0,21.0,29.80,NE,45,4.0,11.0,12,0.00,,,0.00,,2013-04-22 19:01:00,
2013-04-22 14:12:00,78.0,21.0,29.80,NE,45,4.0,11.0,12,0.00,,,0.00,,2013-04-22 19:12:00,
2013-04-22 14:22:00,78.0,25.0,29.79,NE,45,4.0,11.0,14,0.00,,,0.00,,2013-04-22 19:22:00,
2013-04-22 14:32:00,78.0,25.0,29.79,NE,45,4.0,11.0,14,0.00,,,0.00,,2013-04-22 19:32:00,
2013-04-22 14:42:00,78.0,25.0,29.79,NE,45,4.0,11.0,14,0.00,,,0.00,,2013-04-22 19:42:00,
2013-04-22 14:53:00,79.0,29.0,29.77,North,360,4.0,11.0,16,0.00,,,0.00,,2013-04-22 19:53:00,
2013-04-22 15:02:00,80.0,23.0,29.76,North,360,4.0,10.0,12,0.00,,,0.00,,2013-04-22 20:02:00,
2013-04-22 15:11:00,80.0,23.0,29.76,North,360,4.0,10.0,12,0.00,,,0.00,,2013-04-22 20:11:00,
2013-04-22 15:22:00,80.0,23.0,29.76,North,360,4.0,10.0,12,0.00,,,0.00,,2013-04-22 20:22:00,
2013-04-22 15:32:00,80.0,23.0,29.76,North,360,4.0,10.0,12,0.00,,,0.00,,2013-04-22 20:32:00,
2013-04-22 15:42:00,80.0,23.0,29.76,North,360,4.0,10.0,12,0.00,,,0.00,,2013-04-22 20:42:00,
2013-04-22 15:52:00,80.0,21.0,29.73,North,360,5.0,12.0,11,0.00,,,0.00,,2013-04-22 20:52:00,
2013-04-22 16:02:00,80.0,21.0,29.73,North,360,5.0,12.0,11,0.00,,,0.00,,2013-04-22 21:02:00,
2013-04-22 16:11:00,80.0,21.0,29.73,North,360,5.0,12.0,11,0.00,,,0.00,,2013-04-22 21:11:00,
2013-04-22 16:21:00,80.0,21.0,29.73,North,360,5.0,12.0,11,0.00,,,0.00,,2013-04-22 21:21:00,
2013-04-22 16:32:00,80.0,21.0,29.73,North,360,5.0,12.0,11,0.00,,,0.00,,2013-04-22 21:32:00,
2013-04-22 17:03:00,81.0,26.0,29.69,NE,45,3.0,13.0,13,0.00,,,0.00,,2013-04-22 22:03:00,
2013-04-22 17:12:00,81.0,26.0,29.69,NE,45,3.0,13.0,13,0.00,,,0.00,,2013-04-22 22:12:00,
2013-04-22 17:22:00,81.0,26.0,29.69,NE,45,3.0,13.0,13,0.00,,,0.00,,2013-04-22 22:22:00,
2013-04-22 17:33:00,81.0,27.0,29.68,North,360,4.0,19.0,14,0.00,,,0.00,,2013-04-22 22:33:00,
2013-04-22 17:40:00,81.0,27.0,29.68,North,360,4.0,12.0,14,0.00,,,0.00,,2013-04-22 22:40:00,
2013-04-22 17:42:00,81.0,27.0,29.68,North,360,4.0,19.0,14,0.00,,,0.00,,2013-04-22 22:42:00,
2013-04-22 17:52:00,81.0,26.0,29.68,North,360,8.0,13.0,13,0.00,,,0.00,,2013-04-22 22:52:00,
2013-04-22 18:02:00,81.0,27.0,29.68,North,360,4.0,12.0,14,0.00,,,0.00,,2013-04-22 23:02:00,
2013-04-22 18:11:00,81.0,27.0,29.68,North,360,4.0,12.0,14,0.00,,,0.00,,2013-04-22 23:11:00,
2013-04-22 18:21:00,81.0,27.0,29.68,North,360,4.0,12.0,14,0.00,,,0.00,,2013-04-22 23:21:00,
2013-04-22 18:32:00,81.0,27.0,29.68,North,360,4.0,12.0,14,0.00,,,0.00,,2013-04-22 23:32:00,
2013-04-22 18:52:00,80.0,28.0,29.68,North,360,2.0,11.0,15,0.00,,,0.00,,2013-04-22 23:52:00,
2013-04-22 19:02:00,80.0,28.0,29.68,NW,315,2.0,7.0,15,0.00,,,0.00,,2013-04-23 00:02:00,
2013-04-22 19:12:00,80.0,28.0,29.68,NW,315,2.0,7.0,15,0.00,,,0.00,,2013-04-23 00:12:00,
2013-04-22 19:21:00,78.0,30.0,29.67,North,360,3.0,8.0,17,0.00,,,0.00,,2013-04-23 00:21:00,
2013-04-22 19:31:00,78.0,31.0,29.67,NE,45,0.0,6.0,18,0.00,,,0.00,,2013-04-23 00:31:00,
2013-04-22 19:42:00,78.0,31.0,29.67,NE,45,0.0,6.0,18,0.00,,,0.00,,2013-04-23 00:42:00,
2013-04-22 19:52:00,77.0,32.0,29.67,North,360,0.0,1.0,19,0.00,,,0.00,,2013-04-23 00:52:00,
2013-04-22 20:01:00,74.0,35.0,29.67,North,360,0.0,1.0,24,0.00,,,0.00,,2013-04-23 01:01:00,
2013-04-22 20:11:00,74.0,35.0,29.67,North,360,0.0,1.0,24,0.00,,,0.00,,2013-04-23 01:11:00,
2013-04-22 20:21:00,72.0,36.0,29.67,North,360,0.0,2.0,27,0.00,,,0.00,,2013-04-23 01:21:00,
2013-04-22 20:32:00,71.0,38.0,29.67,North,360,0.0,1.0,30,0.00,,,0.00,,2013-04-23 01:32:00,
2013-04-22 20:42:00,71.0,38.0,29.67,North,360,0.0,1.0,30,0.00,,,0.00,,2013-04-23 01:42:00,
2013-04-22 20:52:00,70.0,39.0,29.68,North,360,0.0,1.0,32,0.00,,,0.00,,2013-04-23 01:52:00,
2013-04-22 21:01:00,69.0,40.0,29.68,North,360,0.0,1.0,35,0.00,,,0.00,,2013-04-23 02:01:00,
2013-04-22 21:12:00,69.0,40.0,29.68,North,360,0.0,1.0,35,0.00,,,0.00,,2013-04-23 02:12:00,
2013-04-22 21:21:00,68.0,41.0,29.68,North,360,0.0,2.0,37,0.00,,,0.00,,2013-04-23 02:21:00,
2013-04-22 21:32:00,68.0,41.0,29.68,North,360,0.0,2.0,37,0.00,,,0.00,,2013-04-23 02:32:00,
2013-04-22 21:42:00,68.0,41.0,29.68,North,360,0.0,2.0,37,0.00,,,0.00,,2013-04-23 02:42:00,
2013-04-22 21:52:00,68.0,41.0,29.69,North,360,0.0,2.0,37,0.00,,,0.00,,2013-04-23 02:52:00,
2013-04-22 22:01:00,68.0,41.0,29.70,North,360,0.0,2.0,38,0.00,,,0.00,,2013-04-23 03:01:00,
2013-04-22 22:11:00,68.0,41.0,29.70,North,360,0.0,2.0,38,0.00,,,0.00,,2013-04-23 03:11:00,
2013-04-22 22:21:00,67.0,41.0,29.70,North,360,0.0,2.0,39,0.00,,,0.00,,2013-04-23 03:21:00,
2013-04-22 22:33:00,66.0,42.0,29.70,North,360,0.0,1.0,41,0.00,,,0.00,,2013-04-23 03:33:00,
2013-04-22 22:43:00,66.0,42.0,29.70,North,360,0.0,1.0,41,0.00,,,0.00,,2013-04-23 03:43:00,
2013-04-22 22:53:00,65.0,41.0,29.70,North,360,0.0,1.0,42,0.00,,,0.00,,2013-04-23 03:53:00,
2013-04-22 23:03:00,65.0,41.0,29.70,North,360,0.0,1.0,42,0.00,,,0.00,,2013-04-23 04:03:00,
2013-04-22 23:12:00,65.0,41.0,29.70,North,360,0.0,1.0,42,0.00,,,0.00,,2013-04-23 04:12:00,
2013-04-22 23:23:00,65.0,41.0,29.71,North,360,0.0,0.0,42,0.00,,,0.00,,2013-04-23 04:23:00,
2013-04-22 23:33:00,64.0,42.0,29.70,North,360,0.0,0.0,45,0.00,,,0.00,,2013-04-23 04:33:00,
2013-04-22 23:43:00,64.0,42.0,29.70,North,360,0.0,0.0,45,0.00,,,0.00,,2013-04-23 04:43:00,
2013-04-22 23:52:00,64.0,42.0,29.70,NNW,338,0.0,0.0,45,0.00,,,0.00,,2013-04-23 04:52:00,